Loos, Canada
Current Conditions -  °F | °C
As of 7:00 AM on Sunday 21 Dec 2014 (Local Time) from CYXS Reporting Station
Clear Clear  
Wind Chill: -4°   Ceiling: Unl
Heat Index:   Visibility: 9mi
Dew Point:   Wind: 9mph
Humidity: 100%   Direction: 170°S
Pressure: 29.43"   Gusts: NA
Location:  53.6°N, 120.72°W
Report Text: CYXS 211500Z AUTO 17008KT 9SM CLR M00/M00 A2943 RMK SLP994
Loading
Personal Weather Stations






























Interactive Weather Map New forecast layout! Learn more

10-Day Weather Forecast

Advertisements
Track Severe Weather on mobile